Terminal Aerodrome Forecast
Issued by NWS Wilmington, OH

Current Version | Previous Version | Graphics & Text | Print | Product List | Glossary On
Versions: 1 2 3 4 5 6 7 8 9 10 11 12 13
463
FTUS41 KILN 232339
TAFILN
TAF
KILN 232339Z 2400/2424 16006KT P6SM OVC100
     FM240500 19008KT P6SM BKN150 WS020/21040KT
     FM241400 20013KT P6SM OVC030
     FM241700 21014G22KT P6SM OVC035
     FM242200 21013KT P6SM OVC040=

USA.gov is the U.S. government's official web portal to all federal, state and local government web resources and services.